createdAt,value
2023-12-11T00:01:33.661Z,2.01
2023-12-11T00:04:37.106Z,2.15
2023-12-11T00:07:39.787Z,2.14
2023-12-11T00:10:43.018Z,2.17
2023-12-11T00:13:45.695Z,1.96
2023-12-11T00:16:48.994Z,1.93
2023-12-11T00:19:51.805Z,1.76
2023-12-11T00:22:55.362Z,1.75
2023-12-11T00:25:58.042Z,1.84
2023-12-11T00:29:01.223Z,1.83
2023-12-11T00:32:04.769Z,1.80
2023-12-11T00:35:08.183Z,1.92
2023-12-11T00:38:10.828Z,1.91
2023-12-11T00:41:14.122Z,1.93
2023-12-11T00:44:16.908Z,1.94
2023-12-11T00:47:20.140Z,1.87
2023-12-11T00:50:22.802Z,1.85
2023-12-11T00:53:26.046Z,1.91
2023-12-11T00:56:29.447Z,1.99
2023-12-11T00:59:32.695Z,1.90
2023-12-11T01:02:35.370Z,1.97
2023-12-11T01:05:38.513Z,1.93
2023-12-11T01:08:41.433Z,1.89
2023-12-11T01:11:44.744Z,1.88
2023-12-11T01:14:47.384Z,1.77
2023-12-11T01:17:50.930Z,1.74
2023-12-11T01:20:53.809Z,1.72
2023-12-11T01:23:58.183Z,1.55
2023-12-11T01:27:00.916Z,1.43
2023-12-11T01:30:04.466Z,1.53
2023-12-11T01:33:07.144Z,1.42
2023-12-11T01:36:10.532Z,1.54
2023-12-11T01:39:13.133Z,1.55
2023-12-11T01:42:16.609Z,1.51
2023-12-11T01:45:19.289Z,1.69
2023-12-11T01:48:23.376Z,1.58
2023-12-11T01:51:26.464Z,1.47
2023-12-11T01:54:30.530Z,1.46
2023-12-11T01:57:33.407Z,1.50
2023-12-11T02:00:36.727Z,1.41
2023-12-11T02:03:40.145Z,1.52
2023-12-11T02:06:43.432Z,1.40
2023-12-11T02:09:46.057Z,1.41
2023-12-11T02:12:49.520Z,1.39
2023-12-11T02:15:52.489Z,1.36
2023-12-11T02:18:55.882Z,1.27
2023-12-11T02:21:58.620Z,1.26
2023-12-11T02:25:05.331Z,1.35
2023-12-11T02:28:08.257Z,1.37
2023-12-11T02:31:12.180Z,1.38
2023-12-11T02:34:14.901Z,1.42
2023-12-11T02:37:18.217Z,1.27
2023-12-11T02:40:20.851Z,1.25
2023-12-11T02:43:24.138Z,1.34
2023-12-11T02:46:26.921Z,1.44
2023-12-11T02:49:30.446Z,1.32
2023-12-11T02:52:33.132Z,1.27
2023-12-11T02:55:36.396Z,1.21
2023-12-11T02:58:39.153Z,1.27
2023-12-11T03:01:42.513Z,1.28
2023-12-11T03:04:45.351Z,1.36
2023-12-11T03:07:48.919Z,1.42
2023-12-11T03:10:51.560Z,1.43
2023-12-11T03:13:54.701Z,1.50
2023-12-11T03:16:57.241Z,1.55
2023-12-11T03:20:00.896Z,1.59
2023-12-11T03:23:03.601Z,1.56
2023-12-11T03:26:06.823Z,1.59
2023-12-11T03:29:09.478Z,1.60
2023-12-11T03:32:12.947Z,1.62
2023-12-11T03:35:15.658Z,1.64
2023-12-11T03:38:18.859Z,1.65
2023-12-11T03:41:21.428Z,1.79
2023-12-11T03:44:25.296Z,1.78
2023-12-11T03:47:28.144Z,1.80
2023-12-11T03:50:31.549Z,1.88
2023-12-11T03:53:34.157Z,1.91
2023-12-11T03:56:37.612Z,1.91
2023-12-11T03:59:40.208Z,2.03
2023-12-11T04:02:43.900Z,2.12
2023-12-11T04:05:47.636Z,2.18
2023-12-11T04:08:50.512Z,2.15
2023-12-11T04:11:53.479Z,2.16
2023-12-11T04:14:56.310Z,2.18
2023-12-11T04:17:59.184Z,2.17
2023-12-11T04:21:02.391Z,2.15
2023-12-11T04:24:05.891Z,2.12
2023-12-11T04:27:08.607Z,2.21
2023-12-11T04:30:11.929Z,2.14
2023-12-11T04:33:14.886Z,2.12
2023-12-11T04:36:17.889Z,2.04
2023-12-11T04:39:20.757Z,2.06
2023-12-11T04:42:23.801Z,2.09
2023-12-11T04:45:26.747Z,2.11
2023-12-11T04:48:29.737Z,2.15
2023-12-11T04:51:32.688Z,2.13
2023-12-11T04:54:35.940Z,2.18
2023-12-11T04:57:39.009Z,2.14
2023-12-11T05:00:42.087Z,2.17
2023-12-11T05:03:45.544Z,2.17
2023-12-11T05:06:48.351Z,2.48
2023-12-11T05:09:51.241Z,2.51
2023-12-11T05:12:54.205Z,2.57
2023-12-11T05:15:57.139Z,2.77
2023-12-11T05:19:00.165Z,2.71
2023-12-11T05:22:04.006Z,2.71
2023-12-11T05:25:07.689Z,2.74
2023-12-11T05:28:10.627Z,2.85
2023-12-11T05:31:13.655Z,2.92
2023-12-11T05:34:16.655Z,2.86
2023-12-11T05:37:19.696Z,2.73
2023-12-11T05:40:24.061Z,2.64
2023-12-11T05:43:27.281Z,2.60
2023-12-11T05:46:30.256Z,2.68
2023-12-11T05:49:33.211Z,2.66
2023-12-11T05:52:36.310Z,2.60
2023-12-11T05:55:39.202Z,2.61
2023-12-11T05:58:42.164Z,2.71
2023-12-11T06:01:45.336Z,2.65
2023-12-11T06:04:48.538Z,2.78
2023-12-11T06:07:51.136Z,2.96
2023-12-11T06:10:54.836Z,2.88
2023-12-11T06:13:57.436Z,2.89
2023-12-11T06:17:01.141Z,2.79
2023-12-11T06:20:05.514Z,2.94
2023-12-11T06:23:08.705Z,2.99
2023-12-11T06:26:11.841Z,2.97
2023-12-11T06:29:14.859Z,3.08
2023-12-11T06:32:17.424Z,3.18
2023-12-11T06:35:20.604Z,3.20
2023-12-11T06:38:23.203Z,3.11
2023-12-11T06:41:26.508Z,3.10
2023-12-11T06:44:29.173Z,3.08
2023-12-11T06:47:32.759Z,3.06
2023-12-11T06:50:36.653Z,3.05
2023-12-11T06:53:39.827Z,3.00
2023-12-11T06:56:42.822Z,3.01
2023-12-11T06:59:46.116Z,3.01
2023-12-11T07:02:48.783Z,3.02
2023-12-11T07:05:52.048Z,3.10
2023-12-11T07:08:54.735Z,3.12
2023-12-11T07:11:58.006Z,3.08
2023-12-11T07:15:01.633Z,3.04
2023-12-11T07:18:04.978Z,3.07
2023-12-11T07:21:10.980Z,3.11
2023-12-11T07:24:14.372Z,3.04
2023-12-11T07:27:17.128Z,3.00
2023-12-11T07:30:20.733Z,3.11
2023-12-11T07:33:23.550Z,3.04
2023-12-11T07:36:28.937Z,3.07
2023-12-11T07:39:31.458Z,3.08
2023-12-11T07:42:34.706Z,3.18
2023-12-11T07:45:37.325Z,3.20
2023-12-11T07:48:41.353Z,3.33
2023-12-11T07:51:44.573Z,3.25
2023-12-11T07:54:47.809Z,3.52
2023-12-11T07:57:50.359Z,3.33
2023-12-11T08:00:53.917Z,3.31
2023-12-11T08:03:56.994Z,3.29
2023-12-11T08:07:00.017Z,3.33
2023-12-11T08:10:05.735Z,3.36
2023-12-11T08:13:08.823Z,3.34
2023-12-11T08:16:13.725Z,3.27
2023-12-11T08:19:16.674Z,3.28
2023-12-11T08:22:19.661Z,3.25
2023-12-11T08:25:23.201Z,3.33
2023-12-11T08:28:26.225Z,3.28
2023-12-11T08:31:29.273Z,3.30
2023-12-11T08:34:32.512Z,3.27
2023-12-11T08:37:36.240Z,3.28
2023-12-11T08:40:39.330Z,3.46
2023-12-11T08:43:42.308Z,3.32
2023-12-11T08:46:45.689Z,3.36
2023-12-11T08:49:48.705Z,3.40
2023-12-11T08:52:51.676Z,3.51
2023-12-11T08:55:55.656Z,3.53
2023-12-11T08:58:58.684Z,3.53
2023-12-11T09:02:01.630Z,3.70
2023-12-11T09:05:05.090Z,3.66
2023-12-11T09:08:08.106Z,3.70
2023-12-11T09:11:10.954Z,3.67
2023-12-11T09:14:13.849Z,3.82
2023-12-11T09:17:16.748Z,3.79
2023-12-11T09:20:19.737Z,3.80
2023-12-11T09:23:22.797Z,3.83
2023-12-11T09:26:26.015Z,3.94
2023-12-11T09:29:28.893Z,3.94
2023-12-11T09:32:31.847Z,3.95
2023-12-11T09:35:34.898Z,4.02
2023-12-11T09:38:38.526Z,3.97
2023-12-11T09:41:44.098Z,4.03
2023-12-11T09:44:48.808Z,4.24
2023-12-11T09:48:04.787Z,4.10
2023-12-11T09:51:16.498Z,4.16
2023-12-11T09:54:19.469Z,4.26
2023-12-11T09:57:22.911Z,4.41
2023-12-11T10:00:26.203Z,4.44
2023-12-11T10:03:29.989Z,4.77
2023-12-11T10:06:32.672Z,4.79
2023-12-11T10:09:35.780Z,4.62
2023-12-11T10:21:18.087Z,5.06
2023-12-11T10:24:21.261Z,5.21
2023-12-11T10:27:28.339Z,5.25
2023-12-11T10:30:31.718Z,5.28
2023-12-11T10:33:35.027Z,5.60
2023-12-11T10:36:49.423Z,5.86
2023-12-11T10:39:55.853Z,6.05
2023-12-11T10:43:01.701Z,6.13
2023-12-11T10:46:04.622Z,6.42
2023-12-11T10:49:08.496Z,6.70
2023-12-11T10:52:12.136Z,6.63
2023-12-11T10:55:16.064Z,7.05
2023-12-11T10:58:19.031Z,7.44
2023-12-11T11:01:22.678Z,8.56
2023-12-11T11:04:27.393Z,9.97
2023-12-11T11:07:36.470Z,10.32
2023-12-11T11:10:48.844Z,9.87
2023-12-11T11:14:25.213Z,9.56
2023-12-11T11:18:03.814Z,9.22
2023-12-11T11:21:14.173Z,9.00
2023-12-11T11:24:30.146Z,8.92
2023-12-11T11:27:44.116Z,9.70
2023-12-11T11:30:52.843Z,10.02
2023-12-11T11:33:58.467Z,9.63
2023-12-11T11:37:01.843Z,9.60
2023-12-11T11:40:05.930Z,9.97
2023-12-11T11:43:10.362Z,11.18
2023-12-11T11:46:13.589Z,12.14
2023-12-11T11:49:33.666Z,14.42
2023-12-11T11:52:40.134Z,15.34
2023-12-11T11:55:43.269Z,14.37
2023-12-11T11:58:47.027Z,13.01
2023-12-11T12:01:54.312Z,11.95
2023-12-11T12:05:09.841Z,11.13
2023-12-11T12:08:13.871Z,12.38
2023-12-11T12:11:17.103Z,13.56
2023-12-11T12:14:22.607Z,14.34
2023-12-11T12:17:26.082Z,16.45
2023-12-11T12:20:28.963Z,17.31
2023-12-11T12:23:33.050Z,16.18
2023-12-11T12:26:37.078Z,14.72
2023-12-11T12:29:41.816Z,13.55
2023-12-11T12:32:45.049Z,13.18
2023-12-11T12:35:50.071Z,13.63
2023-12-11T12:38:52.858Z,14.79
2023-12-11T12:41:57.664Z,14.61
2023-12-11T12:45:00.816Z,13.79
2023-12-11T12:48:05.905Z,13.13
2023-12-11T12:51:10.803Z,12.20
2023-12-11T12:54:15.887Z,11.27
2023-12-11T12:57:18.693Z,10.49
2023-12-11T13:00:21.838Z,9.81
2023-12-11T13:03:25.493Z,9.49
2023-12-11T13:06:28.926Z,9.44
2023-12-11T13:09:33.258Z,9.39
2023-12-11T13:12:36.538Z,9.21
2023-12-11T13:15:40.544Z,8.87
2023-12-11T13:18:43.973Z,8.49
2023-12-11T13:21:46.885Z,8.10
2023-12-11T13:24:50.039Z,7.84
2023-12-11T13:27:52.667Z,7.62
2023-12-11T13:30:55.739Z,7.50
2023-12-11T13:33:58.454Z,7.33
2023-12-11T13:37:01.595Z,7.13
2023-12-11T13:40:08.341Z,7.00
2023-12-11T13:43:12.867Z,6.92
2023-12-11T13:46:15.893Z,6.83
2023-12-11T13:49:19.232Z,6.75
2023-12-11T13:52:22.332Z,6.67
2023-12-11T13:55:25.604Z,6.55
2023-12-11T13:58:28.807Z,6.48
2023-12-11T14:01:32.054Z,6.42
2023-12-11T14:04:34.983Z,6.48
2023-12-11T14:07:38.010Z,6.58
2023-12-11T14:10:41.028Z,6.51
2023-12-11T14:13:43.946Z,6.40
2023-12-11T14:16:46.838Z,6.32
2023-12-11T14:19:50.168Z,6.31
2023-12-11T14:22:53.280Z,6.19
2023-12-11T14:25:58.210Z,6.19
2023-12-11T14:29:01.125Z,6.02
2023-12-11T14:32:04.186Z,5.78
2023-12-11T14:35:07.605Z,5.59
2023-12-11T14:38:10.569Z,5.39
2023-12-11T14:41:14.183Z,5.30
2023-12-11T14:44:19.224Z,5.21
2023-12-11T14:47:23.245Z,5.01
2023-12-11T14:50:26.128Z,4.94
2023-12-11T14:53:29.698Z,4.87
2023-12-11T14:56:32.648Z,4.78
2023-12-11T14:59:36.207Z,4.68
2023-12-11T15:02:39.427Z,4.60
2023-12-11T15:05:42.437Z,4.49
2023-12-11T15:08:45.519Z,4.46
2023-12-11T15:11:48.498Z,4.43
2023-12-11T15:14:51.609Z,4.42
2023-12-11T15:17:54.603Z,4.39
2023-12-11T15:20:57.639Z,4.43
2023-12-11T15:24:00.589Z,4.44
2023-12-11T15:27:05.090Z,4.43
2023-12-11T15:30:09.385Z,4.42
2023-12-11T15:33:12.462Z,4.42
2023-12-11T15:36:19.655Z,4.51
2023-12-11T15:39:24.898Z,4.53
2023-12-11T15:42:27.838Z,4.67
2023-12-11T15:45:30.713Z,4.63
2023-12-11T15:48:33.922Z,4.58
2023-12-11T15:51:36.875Z,4.49
2023-12-11T15:54:44.150Z,4.62
2023-12-11T15:57:47.073Z,4.53
2023-12-11T16:00:50.109Z,4.57
2023-12-11T16:03:53.578Z,4.64
2023-12-11T16:06:56.353Z,4.72
2023-12-11T16:09:59.525Z,4.64
2023-12-11T16:13:02.381Z,4.70
2023-12-11T16:16:10.148Z,4.72
2023-12-11T16:19:13.803Z,4.69
2023-12-11T16:22:17.738Z,4.71
2023-12-11T16:25:20.323Z,4.69
2023-12-11T16:28:23.623Z,4.75
2023-12-11T16:31:26.384Z,4.69
2023-12-11T16:34:32.702Z,4.76
2023-12-11T16:37:35.520Z,4.72
2023-12-11T16:40:40.945Z,4.64
2023-12-11T16:43:48.711Z,4.59
2023-12-11T16:46:51.863Z,4.57
2023-12-11T16:50:02.070Z,4.58
2023-12-11T16:53:09.974Z,4.76
2023-12-11T16:56:13.887Z,4.68
2023-12-11T16:59:17.636Z,4.61
2023-12-11T17:02:20.299Z,4.55
2023-12-11T17:05:23.701Z,4.61
2023-12-11T17:08:26.874Z,4.69
2023-12-11T17:11:34.555Z,4.75
2023-12-11T17:14:37.059Z,4.66
2023-12-11T17:17:58.840Z,4.76
2023-12-11T17:21:03.677Z,4.64
2023-12-11T17:24:07.821Z,4.75
2023-12-11T17:27:10.582Z,4.68
2023-12-11T17:30:14.001Z,4.66
2023-12-11T17:33:16.606Z,4.74
2023-12-11T17:36:20.029Z,4.61
2023-12-11T17:39:24.172Z,4.67
2023-12-11T17:42:28.109Z,4.60
2023-12-11T17:45:30.637Z,4.48
2023-12-11T17:48:34.003Z,4.45
2023-12-11T17:51:36.794Z,4.42
2023-12-11T17:54:40.025Z,4.49
2023-12-11T17:57:42.743Z,4.48
2023-12-11T18:00:46.057Z,4.67
2023-12-11T18:03:49.548Z,4.72
2023-12-11T18:06:52.771Z,4.70
2023-12-11T18:09:55.692Z,4.61
2023-12-11T18:12:58.584Z,4.66
2023-12-11T18:16:01.621Z,4.61
2023-12-11T18:19:04.649Z,4.51
2023-12-11T18:22:08.079Z,4.55
2023-12-11T18:25:12.330Z,4.48
2023-12-11T18:28:16.510Z,4.56
2023-12-11T18:31:19.629Z,4.58
2023-12-11T18:34:23.059Z,4.49
2023-12-11T18:37:26.772Z,4.41
2023-12-11T18:40:29.915Z,4.58
2023-12-11T18:43:33.025Z,4.59
2023-12-11T18:46:36.200Z,4.56
2023-12-11T18:49:46.064Z,4.48
2023-12-11T18:52:49.731Z,4.57
2023-12-11T18:56:01.776Z,4.60
2023-12-11T18:59:04.971Z,4.58
2023-12-11T19:02:09.191Z,4.72
2023-12-11T19:05:12.437Z,4.62
2023-12-11T19:08:15.479Z,4.62
2023-12-11T19:11:20.470Z,4.51
2023-12-11T19:14:24.045Z,4.59
2023-12-11T19:17:47.168Z,4.57
2023-12-11T19:20:50.076Z,4.60
2023-12-11T19:23:53.015Z,4.80
2023-12-11T19:26:55.959Z,4.67
2023-12-11T19:29:58.893Z,4.60
2023-12-11T19:33:03.174Z,4.49
2023-12-11T19:36:07.453Z,4.54
2023-12-11T19:39:11.069Z,4.75
2023-12-11T19:42:14.164Z,4.62
2023-12-11T19:45:17.679Z,4.58
2023-12-11T19:48:20.851Z,4.51
2023-12-11T19:51:48.126Z,4.45
2023-12-11T19:55:10.287Z,4.50
2023-12-11T19:58:13.169Z,4.37
2023-12-11T20:01:26.517Z,4.30
2023-12-11T20:04:29.924Z,4.32
2023-12-11T20:07:32.802Z,4.25
2023-12-11T20:10:36.216Z,4.22
2023-12-11T20:13:40.174Z,4.22
2023-12-11T20:16:43.848Z,4.26
2023-12-11T20:19:46.774Z,4.34
2023-12-11T20:22:52.563Z,4.30
2023-12-11T20:26:01.483Z,4.35
2023-12-11T20:29:04.974Z,4.47
2023-12-11T20:32:07.595Z,4.51
2023-12-11T20:35:10.842Z,4.44
2023-12-11T20:38:13.530Z,4.53
2023-12-11T20:41:25.052Z,4.55
2023-12-11T20:44:27.738Z,4.45
2023-12-11T20:47:31.216Z,4.40
2023-12-11T20:50:34.105Z,4.34
2023-12-11T20:53:39.048Z,4.38
2023-12-11T20:56:41.745Z,4.33
2023-12-11T20:59:45.162Z,4.38
2023-12-11T21:02:48.131Z,4.34
2023-12-11T21:05:51.250Z,4.46
2023-12-11T21:08:56.097Z,4.47
2023-12-11T21:11:59.354Z,4.36
2023-12-11T21:15:03.942Z,4.44
2023-12-11T21:18:07.657Z,4.43
2023-12-11T21:21:16.246Z,4.52
2023-12-11T21:24:19.541Z,4.55
2023-12-11T21:27:22.267Z,4.45
2023-12-11T21:30:26.496Z,4.40
2023-12-11T21:33:29.382Z,4.38
2023-12-11T21:36:32.944Z,4.33
2023-12-11T21:39:35.592Z,4.30
2023-12-11T21:42:38.889Z,4.42
2023-12-11T21:45:41.559Z,4.33
2023-12-11T21:48:48.163Z,4.52
2023-12-11T21:51:51.498Z,4.59
2023-12-11T21:54:54.790Z,4.58
2023-12-11T21:57:57.374Z,4.72
2023-12-11T22:01:00.670Z,4.68
2023-12-11T22:04:03.974Z,4.53
2023-12-11T22:07:07.005Z,4.49
2023-12-11T22:10:10.056Z,4.37
2023-12-11T22:13:12.984Z,4.33
2023-12-11T22:16:16.495Z,4.36
2023-12-11T22:19:19.749Z,4.44
2023-12-11T22:22:22.724Z,4.52
2023-12-11T22:25:25.571Z,4.51
2023-12-11T22:28:28.636Z,4.54
2023-12-11T22:31:31.772Z,4.59
2023-12-11T22:34:35.232Z,4.76
2023-12-11T22:37:39.605Z,4.86
2023-12-11T22:40:42.725Z,4.86
2023-12-11T22:43:45.555Z,4.91
2023-12-11T22:46:48.520Z,4.93
2023-12-11T22:49:51.400Z,5.13
2023-12-11T22:52:54.475Z,4.81
2023-12-11T22:55:57.413Z,4.66
2023-12-11T22:59:00.328Z,4.67
2023-12-11T23:02:04.458Z,4.67
2023-12-11T23:05:07.962Z,4.66
2023-12-11T23:08:10.885Z,4.64
2023-12-11T23:11:13.854Z,4.68
2023-12-11T23:14:16.754Z,4.70
2023-12-11T23:17:19.589Z,4.67
2023-12-11T23:20:22.441Z,4.69
2023-12-11T23:23:25.497Z,4.67
2023-12-11T23:26:28.348Z,4.72
2023-12-11T23:29:31.199Z,4.73
2023-12-11T23:32:34.028Z,4.70
2023-12-11T23:35:37.042Z,4.73
2023-12-11T23:38:40.403Z,5.11
2023-12-11T23:41:44.756Z,4.93
2023-12-11T23:44:47.685Z,4.62
2023-12-11T23:47:50.620Z,4.47
2023-12-11T23:50:53.494Z,4.48
2023-12-11T23:53:56.620Z,4.47
2023-12-11T23:56:59.448Z,4.47
